x

Diamond Shoals (41025) Wave Buoy

1:50am - Tue 21st Apr 2015 All times are EDT. -4 hours from GMT.

  • Sig Wave height 5.9ft
  • Swell Direction
  • Peak Period 6s
  • Average Period 5s
  • Wind
    25mph, 31mph gusts
  • Sea Temp 75°f
  • Air Temp 75°f
  • Sea Pressure 1007.2mb
  • Diamond Shoals
  • Diamond Shoals

More Historic Weather Station data

Upgrade to MSW Pro to gain access to the past 30 days of data for over 8000 Wavebouys and Weather Stations around the globe.

Join Pro

Comparision Forecast

View Surf forecast
   
Tue 04/21 1:50am 6ft 6s 5s 25 31 mph 1007.2mb 75f 75f
12:50am 6ft 6s 5s 22 27 mph 1008.3mb 75f 73f
Mon 04/20 11:50pm 6ft 7s 5s 25 31 mph 1007.9mb 75f 76f
10:50pm 6ft 6s 5s 25 31 mph 1007.7mb 75f 75f
9:50pm 6ft 7s 5s 25 29 mph 1007.8mb 75f 75f
8:50pm 5ft 6s 5s 25 29 mph 1007.5mb 75f 74f
7:50pm 5ft 8s 5s 22 27 mph 1007.6mb 74f 74f
6:50pm 5.5ft 8s 5s 25 29 mph 1007.8mb 73f 73f
5:50pm 5.5ft 7s 5s 20 25 mph 1007.5mb 73f 72f
4:50pm 5.5ft 8s 5s 22 27 mph 1008mb 73f 71f
3:50pm 5.5ft 8s 5s 25 29 mph 1008.4mb 73f 72f
2:50pm 5.5ft 7s 5s 22 27 mph 1008.1mb 73f 71f
12:50pm 6.5ft 8s 5s 25 29 mph 1008.6mb 73f 71f
11:50am 6ft 8s 6s 20 25 mph 1009.3mb 73f 71f
10:50am 7.5ft 8s 6s 18 22 mph 1009.3mb 73f 72f
9:50am 7ft 8s 6s 18 20 mph 1009.2mb 72f 71f
8:50am 7.5ft 8s 6s 18 22 mph 1009.2mb 72f 72f
7:50am 9ft 7s 6s 27 31 mph 1008.6mb 72f 74f
6:50am 9ft 7s 6s 29 34 mph 1008.1mb 72f 74f
5:50am 9ft 7s 6s 29 38 mph 1008.2mb 72f 73f
4:50am 8.5ft 7s 6s 31 38 mph 1008.4mb 71f 73f
3:50am 8ft 7s 6s 31 38 mph 1008.8mb 71f 72f
2:50am 9ft 7s 6s 31 36 mph 1009.8mb 71f 72f
1:50am 9ft 7s 6s 29 36 mph 1010.8mb 70f 72f
12:50am 8ft 7s 6s 27 34 mph 1011.7mb 71f 72f
Sun 04/19 11:50pm 9ft 6s 6s 29 34 mph 1012.5mb 71f 73f
10:50pm 7.5ft 6s 6s 29 34 mph 1012.7mb 71f 73f
9:50pm 7.5ft 6s 5s 29 36 mph 1013.4mb 72f 73f
8:50pm 7ft 6s 5s 29 36 mph 1013.7mb 72f 73f
7:50pm 6.5ft 6s 5s 27 29 mph 1013.8mb 73f 73f
6:50pm 6.5ft 7s 5s 25 29 mph 1013.9mb 73f 74f
5:50pm 6ft 6s 5s 27 31 mph 1014mb 73f 74f
4:50pm 5ft 6s 5s 25 27 mph 1014.3mb 74f 73f
3:50pm 5ft 7s 5s 22 25 mph 1014.7mb 74f 74f
2:50pm 5ft 12s 5s 25 27 mph 1015.1mb 74f 74f
1:50pm 4.5ft 12s 5s 20 25 mph 1015.9mb 75f 74f
12:50pm 4ft 12s 5s 20 25 mph 1016.4mb 75f 74f
11:50am 4.5ft 13s 6s 18 22 mph 1017.1mb 75f 74f
10:50am 4ft 12s 6s 13 16 mph 1017.2mb 75f 73f
9:50am 4ft 13s 6s 16 18 mph 1016.8mb 76f 73f
8:50am 4ft 13s 7s 16 18 mph 1016.8mb 76f 72f
7:50am 4.5ft 12s 7s 11 13 mph 1016.7mb 76f 73f
6:50am 4ft 13s 7s 13 16 mph 1016mb 76f 72f
5:50am 4.5ft 14s 7s 11 13 mph 1015.4mb 76f 71f
4:50am 4ft 13s 7s 11 16 mph 1015.2mb 76f 70f
3:50am 4ft 12s 7s 11 13 mph 1015.4mb 76f 71f
2:50am 4.5ft 9s 7s 9
mph
1015.3mb 76f 70f
1:50am 4.5ft 14s 7s  -  2 mph 1015.9mb 77f 71f
12:50am 4.5ft 13s 7s 7 9 mph 1016.3mb 76f 71f
Sat 04/18 11:50pm 4ft 12s 7s 11 13 mph 1016mb 76f 69f
10:50pm 4ft 10s 7s 9 11 mph 1015.5mb 76f 69f
9:50pm 4.5ft 9s 7s 11 13 mph 1015.6mb 76f 69f
8:50pm 4.5ft 11s 7s 9
mph
1015.3mb 76f 71f
7:50pm 4.5ft 8s 7s 9 11 mph 1014.5mb 76f 71f
6:50pm 4ft 7s 7s 9 11 mph 1014.2mb 77f 72f
5:50pm 4.5ft 9s 7s 7
mph
1014.2mb 75f 72f
4:50pm 4.5ft 9s 8s 4 7 mph 1014.2mb 75f 72f
3:50pm 4.5ft 8s 7s 7
mph
1013.9mb 75f 70f
2:50pm 4.5ft 8s 7s 9 11 mph 1014.5mb 75f 70f
1:50pm 4.5ft 7s 7s 7 9 mph 1015.4mb 75f 71f
12:50pm 4.5ft 8s 7s 9
mph
1015.6mb 75f 71f
11:50am 4.5ft 11s 7s 7 9 mph 1015.9mb 75f 71f
10:50am 4.5ft 8s 7s 9 11 mph 1015.8mb 75f 70f
9:50am 5ft 9s 7s 11 13 mph 1015.7mb 75f 70f
8:50am 4.5ft 8s 7s 9 11 mph 1015.3mb 75f 70f
7:50am 5ft 7s 7s 9
mph
1015.6mb 75f 70f
6:50am 5ft 8s 7s 7 9 mph 1015.2mb 75f 70f
5:50am 4.5ft 9s 7s 7 9 mph 1014.2mb 75f 71f
4:50am 4.5ft 7s 7s 7 9 mph 1014.6mb 74f 70f
3:50am 5ft 8s 7s 9
mph
1014.6mb 74f 70f
2:50am 4.5ft 8s 7s 4 7 mph 1014.6mb 74f 72f
1:50am 5ft 8s 7s 2 4 mph 1015.3mb 74f 72f
12:50am 5ft 8s 7s 7 9 mph 1015.8mb 74f 72f
Fri 04/17 11:50pm 4.5ft 8s 6s 7 9 mph 1016.3mb 74f 72f
10:50pm 4.5ft 8s 6s 4
mph
1016.4mb 75f 72f
8:50pm 5.5ft 10s 7s 4 9 mph 1016mb 75f 72f
7:50pm 5.5ft 8s 7s  -  2 mph 1016mb 75f 71f
6:50pm 6ft 9s 7s 2 4 mph 1016.2mb 75f 71f
5:50pm 6.5ft 7s 7s 4 7 mph 1016mb 75f 72f
4:50pm 6ft 8s 7s 4
mph
1015.9mb 75f 72f
3:50pm 6ft 9s 7s 4 9 mph 1016.9mb 75f 73f
2:50pm 6ft 8s 7s 4 7 mph 1017.9mb 74f 72f
1:50pm 6ft 8s 7s 4 7 mph 1018.7mb 74f 72f
12:50pm 6.5ft 8s 7s 7 9 mph 1019.4mb 73f 72f
11:50am 7ft 8s 7s 9 11 mph 1019.9mb 73f 71f
10:50am 6.5ft 8s 7s 11 13 mph 1020.6mb 73f 71f
9:50am 7ft 8s 7s 13 16 mph 1020.5mb 73f 71f
8:50am 7ft 8s 7s 11 13 mph 1020.7mb 73f 71f
7:50am 7ft 8s 7s 11 16 mph 1020.9mb 74f 71f